Time;durP1;ratioP1;P1;durP2;ratioP2;P2;SDS_P1;SDS_P2;PMS_P1;PMS_P2;Temp;Humidity;BMP_temperature;BMP_pressure;BME280_temperature;BME280_humidity;BME280_pressure;Samples;Min_cycle;Max_cycle;Signal;HPM_P1;HPM_P2
2022/07/18 00:03:21;;;;;;;3.80;1.77;;;9.10;1.00;;;;;;8339434;28;20707;-66
2022/07/18 00:07:22;;;;;;;4.27;2.10;;;9.10;1.00;;;;;;8321098;28;20190;-65
2022/07/18 00:11:23;;;;;;;3.37;1.67;;;9.00;1.00;;;;;;8344066;28;20190;-63
2022/07/18 00:15:24;;;;;;;2.00;1.60;;;9.00;1.00;;;;;;8342504;28;20191;-64
2022/07/18 00:19:26;;;;;;;3.53;2.07;;;8.90;1.00;;;;;;8345196;28;20328;-64
2022/07/18 00:23:27;;;;;;;3.20;1.63;;;8.90;1.00;;;;;;8349904;28;20189;-65
2022/07/18 00:27:28;;;;;;;2.57;1.40;;;8.80;1.00;;;;;;8333515;28;20296;-66
2022/07/18 00:31:28;;;;;;;2.03;1.30;;;8.80;1.00;;;;;;8352233;28;20190;-63
2022/07/18 00:35:29;;;;;;;4.03;1.57;;;8.80;1.00;;;;;;8344107;28;20216;-65
2022/07/18 00:39:30;;;;;;;2.17;1.47;;;8.80;1.00;;;;;;8328750;28;20213;-64
2022/07/18 00:43:31;;;;;;;2.37;1.90;;;8.70;21.00;;;;;;8341100;28;20285;-66
2022/07/18 00:47:32;;;;;;;2.73;1.90;;;8.80;31.00;;;;;;8321540;28;20193;-63
2022/07/18 00:51:36;;;;;;;3.47;1.20;;;8.80;94.30;;;;;;8339184;28;20221;-72
2022/07/18 00:55:39;;;;;;;3.87;1.80;;;8.80;99.90;;;;;;8346469;28;20280;-63
2022/07/18 01:04:00;;;;;;;3.20;1.80;;;8.80;99.90;;;;;;8343936;28;20194;-64
2022/07/18 01:08:01;;;;;;;2.57;2.30;;;8.90;99.90;;;;;;8325991;28;20276;-63
2022/07/18 01:12:04;;;;;;;3.73;1.90;;;9.00;99.90;;;;;;8325067;28;20193;-63
2022/07/18 01:16:05;;;;;;;2.40;1.50;;;9.00;99.90;;;;;;8325836;28;20197;-63
2022/07/18 01:20:07;;;;;;;2.70;1.87;;;9.00;99.90;;;;;;8323507;28;20217;-66
2022/07/18 01:24:08;;;;;;;2.70;1.90;;;9.00;99.90;;;;;;8318042;28;20187;-64
2022/07/18 01:28:08;;;;;;;3.43;2.03;;;9.00;99.90;;;;;;8345782;28;20288;-63
2022/07/18 01:32:10;;;;;;;3.20;2.00;;;9.00;99.90;;;;;;8330171;28;20196;-64
2022/07/18 01:36:11;;;;;;;5.60;2.13;;;8.90;99.90;;;;;;8325668;28;20446;-63
2022/07/18 01:40:12;;;;;;;5.43;2.23;;;8.90;99.90;;;;;;8345284;28;20217;-63
2022/07/18 01:44:13;;;;;;;2.57;1.60;;;8.90;99.90;;;;;;8346966;28;20182;-64
2022/07/18 01:48:14;;;;;;;4.37;1.93;;;8.80;1.00;;;;;;8339381;28;20209;-63
2022/07/18 01:52:14;;;;;;;3.67;2.07;;;8.80;1.00;;;;;;8329611;28;20304;-64
2022/07/18 01:56:15;;;;;;;3.37;2.20;;;8.80;1.00;;;;;;8330523;28;20186;-64
2022/07/18 02:00:16;;;;;;;1.90;1.47;;;8.80;1.00;;;;;;8345215;28;20218;-64
2022/07/18 02:04:17;;;;;;;2.80;2.00;;;8.80;1.00;;;;;;8327778;28;20182;-65
2022/07/18 02:08:18;;;;;;;4.17;2.17;;;8.80;1.00;;;;;;8347885;28;20192;-70
2022/07/18 02:12:19;;;;;;;2.60;2.10;;;8.80;1.00;;;;;;8344687;28;20232;-65
2022/07/18 02:16:20;;;;;;;2.27;1.63;;;8.80;32.90;;;;;;8327074;28;20201;-65
2022/07/18 02:20:20;;;;;;;3.53;2.20;;;8.80;99.90;;;;;;8355880;28;20279;-65
2022/07/18 02:24:21;;;;;;;2.00;1.70;;;8.70;99.90;;;;;;8322485;28;20192;-65
2022/07/18 02:28:22;;;;;;;2.57;1.83;;;8.70;99.90;;;;;;8329764;28;20190;-65
2022/07/18 02:32:23;;;;;;;2.33;1.50;;;8.70;99.90;;;;;;8331878;28;20221;-65
2022/07/18 02:36:24;;;;;;;3.30;2.03;;;8.60;99.90;;;;;;8332476;28;20264;-65
2022/07/18 02:40:24;;;;;;;3.57;1.73;;;8.60;1.00;;;;;;8332358;28;20204;-64
2022/07/18 02:44:25;;;;;;;4.10;1.97;;;8.60;1.00;;;;;;8349427;28;20260;-65
2022/07/18 02:48:26;;;;;;;2.03;1.73;;;8.60;99.90;;;;;;8349868;28;20190;-66
2022/07/18 02:52:27;;;;;;;3.33;2.20;;;8.70;99.90;;;;;;8351752;28;20288;-72
2022/07/18 02:56:28;;;;;;;6.10;2.53;;;8.70;1.00;;;;;;8336877;28;20268;-64
2022/07/18 03:00:29;;;;;;;2.73;1.93;;;8.80;99.90;;;;;;8337967;28;20229;-64
2022/07/18 03:04:30;;;;;;;2.77;2.10;;;8.80;99.90;;;;;;8331839;28;20190;-65
2022/07/18 03:08:31;;;;;;;3.53;1.97;;;8.80;1.00;;;;;;8335030;28;20225;-66
2022/07/18 03:12:32;;;;;;;3.13;1.60;;;8.90;99.90;;;;;;8323006;28;20202;-66
2022/07/18 03:16:33;;;;;;;1.97;1.63;;;9.00;1.00;;;;;;8327613;28;20205;-65
2022/07/18 03:20:34;;;;;;;2.30;1.77;;;9.00;99.90;;;;;;8356246;28;20257;-65
2022/07/18 03:24:35;;;;;;;5.30;2.33;;;9.10;99.90;;;;;;8332851;28;20190;-67
2022/07/18 03:28:36;;;;;;;2.13;1.57;;;9.20;99.90;;;;;;8334984;28;20197;-64
2022/07/18 03:32:36;;;;;;;2.93;2.10;;;9.30;99.90;;;;;;8335864;28;20232;-64
2022/07/18 03:36:38;;;;;;;3.57;2.00;;;9.50;99.90;;;;;;8337818;28;20209;-65
2022/07/18 03:40:39;;;;;;;3.10;2.10;;;9.60;1.00;;;;;;8337712;28;20214;-64
2022/07/18 03:44:39;;;;;;;3.37;2.33;;;9.90;99.90;;;;;;8333259;28;20189;-64
2022/07/18 03:48:41;;;;;;;2.20;1.80;;;10.20;22.20;;;;;;8342842;28;20312;-64
2022/07/18 03:52:41;;;;;;;3.63;2.10;;;10.20;1.00;;;;;;8335563;28;20221;-64
2022/07/18 03:56:42;;;;;;;4.07;2.10;;;10.30;1.00;;;;;;8356636;28;20210;-64
2022/07/18 04:00:43;;;;;;;1.90;1.70;;;10.40;1.00;;;;;;8345245;28;20232;-65
2022/07/18 04:04:44;;;;;;;2.40;1.93;;;10.60;1.00;;;;;;8348042;28;20177;-66
2022/07/18 04:08:45;;;;;;;3.43;2.17;;;10.80;1.00;;;;;;8346919;28;20190;-66
2022/07/18 04:12:52;;;;;;;2.80;1.90;;;11.80;1.00;;;;;;8338251;28;20185;-64
2022/07/18 04:16:53;;;;;;;2.90;1.70;;;13.50;1.00;;;;;;8332731;28;20185;-66
2022/07/18 04:20:55;;;;;;;2.73;1.83;;;14.70;1.00;;;;;;8364615;28;21616;-65
2022/07/18 04:24:56;;;;;;;1.80;1.37;;;14.90;1.00;;;;;;8343067;28;20251;-65
2022/07/18 04:28:57;;;;;;;3.77;1.97;;;15.00;1.00;;;;;;8340240;28;20193;-64
2022/07/18 04:33:00;;;;;;;3.80;2.03;;;15.50;99.90;;;;;;8339832;28;20273;-62
2022/07/18 04:37:01;;;;;;;2.33;1.80;;;16.90;99.90;;;;;;8351408;28;20193;-63
2022/07/18 04:41:02;;;;;;;4.57;2.40;;;18.00;99.90;;;;;;8336687;28;20205;-61
2022/07/18 04:45:05;;;;;;;6.20;2.60;;;18.00;99.90;;;;;;8352408;28;20213;-62
2022/07/18 04:49:06;;;;;;;4.63;2.13;;;18.10;77.10;;;;;;8353433;28;20543;-62
2022/07/18 04:53:06;;;;;;;3.07;1.90;;;18.30;54.40;;;;;;8335767;28;20222;-63
2022/07/18 04:57:10;;;;;;;3.40;2.10;;;18.70;31.70;;;;;;8337154;28;20189;-63
2022/07/18 05:01:12;;;;;;;3.73;1.70;;;19.40;1.00;;;;;;8354580;28;20207;-62
2022/07/18 05:05:15;;;;;;;4.17;1.90;;;19.50;1.00;;;;;;8329019;28;20194;-63
2022/07/18 05:09:16;;;;;;;4.07;2.00;;;18.90;1.00;;;;;;8351252;28;20197;-64
2022/07/18 05:13:17;;;;;;;2.70;1.63;;;18.60;1.00;;;;;;8348643;28;20328;-63
2022/07/18 05:17:18;;;;;;;2.37;1.50;;;18.50;1.00;;;;;;8332938;28;20198;-63
2022/07/18 05:21:19;;;;;;;4.27;1.47;;;18.40;5.60;;;;;;8341463;28;20234;-65
2022/07/18 05:25:22;;;;;;;3.40;1.60;;;18.30;1.00;;;;;;8338372;28;20217;-65
2022/07/18 05:29:23;;;;;;;2.40;1.30;;;18.20;1.00;;;;;;8328920;28;20206;-65
2022/07/18 05:33:24;;;;;;;3.60;1.20;;;18.20;1.00;;;;;;8334061;28;20195;-66
2022/07/18 05:37:25;;;;;;;2.87;1.23;;;18.20;1.00;;;;;;8323262;28;20189;-64
2022/07/18 05:41:26;;;;;;;3.17;1.30;;;18.30;1.00;;;;;;8327939;28;20217;-62
2022/07/18 05:45:27;;;;;;;2.07;0.90;;;18.40;1.00;;;;;;8334200;28;20186;-62
2022/07/18 05:49:28;;;;;;;1.83;1.00;;;18.50;1.00;;;;;;8345318;28;20270;-63
2022/07/18 05:53:29;;;;;;;5.30;1.13;;;18.60;1.00;;;;;;8326462;28;20221;-64
2022/07/18 05:57:30;;;;;;;2.10;0.87;;;18.80;1.00;;;;;;8342570;28;20415;-63
2022/07/18 06:01:31;;;;;;;2.07;1.10;;;19.10;1.00;;;;;;8338814;28;20212;-63
2022/07/18 06:05:32;;;;;;;6.13;1.33;;;19.20;1.00;;;;;;8345794;28;20181;-63
2022/07/18 06:09:33;;;;;;;2.13;1.00;;;19.40;1.00;;;;;;8357198;28;20196;-66
2022/07/18 06:13:37;;;;;;;3.13;1.10;;;19.60;1.00;;;;;;8345895;28;20194;-67
2022/07/18 06:17:37;;;;;;;5.10;1.33;;;19.80;1.00;;;;;;8333323;28;20187;-66
2022/07/18 06:21:38;;;;;;;4.27;1.33;;;20.10;1.00;;;;;;8327088;28;20292;-65
2022/07/18 06:25:39;;;;;;;3.67;1.30;;;20.30;1.00;;;;;;8330240;28;20189;-68
2022/07/18 06:29:40;;;;;;;3.13;1.00;;;20.50;1.00;;;;;;8343196;28;20256;-65
2022/07/18 06:33:41;;;;;;;2.07;1.00;;;20.60;1.00;;;;;;8335303;28;20206;-64
2022/07/18 06:37:43;;;;;;;4.17;1.20;;;20.60;1.00;;;;;;8333023;28;20204;-63
2022/07/18 06:41:45;;;;;;;3.43;1.13;;;20.60;1.00;;;;;;8344434;28;20203;-64
2022/07/18 06:45:46;;;;;;;4.17;0.97;;;20.60;1.00;;;;;;8361413;28;20182;-65
2022/07/18 06:49:47;;;;;;;2.90;0.90;;;20.80;1.00;;;;;;8326156;28;20203;-66
2022/07/18 06:53:48;;;;;;;2.77;1.20;;;21.10;1.00;;;;;;8323644;28;20307;-68
2022/07/18 06:57:49;;;;;;;3.80;1.23;;;21.40;1.00;;;;;;8350401;28;20295;-67
2022/07/18 07:01:50;;;;;;;3.33;1.10;;;21.70;1.00;;;;;;8352961;28;20240;-64
2022/07/18 07:05:51;;;;;;;4.33;1.10;;;21.80;1.00;;;;;;8319519;28;20289;-64
2022/07/18 07:09:51;;;;;;;2.57;1.10;;;22.00;1.00;;;;;;8322934;28;20200;-66
2022/07/18 07:13:53;;;;;;;2.97;1.33;;;21.80;1.00;;;;;;8343931;28;20194;-64
2022/07/18 07:17:54;;;;;;;2.97;1.03;;;21.70;1.00;;;;;;8327102;28;20191;-66
2022/07/18 07:21:55;;;;;;;4.27;0.87;;;21.90;1.00;;;;;;8329550;28;20218;-66
2022/07/18 07:25:56;;;;;;;2.40;0.93;;;22.10;1.00;;;;;;8349711;28;20225;-73
2022/07/18 07:29:57;;;;;;;2.07;0.77;;;22.30;1.00;;;;;;8332567;28;20194;-65
2022/07/18 07:33:58;;;;;;;4.53;1.07;;;22.40;1.00;;;;;;8332852;28;20190;-66
2022/07/18 07:37:59;;;;;;;2.77;1.10;;;22.60;1.00;;;;;;8331644;28;20240;-64
2022/07/18 07:42:00;;;;;;;1.47;0.90;;;22.60;1.00;;;;;;8334157;28;20241;-65
2022/07/18 07:46:01;;;;;;;3.17;1.10;;;22.60;1.00;;;;;;8331341;28;20177;-64
2022/07/18 07:50:03;;;;;;;2.20;1.10;;;22.80;1.00;;;;;;8338147;28;20221;-64
2022/07/18 07:54:05;;;;;;;2.73;1.10;;;22.70;1.00;;;;;;8350549;28;20202;-66
2022/07/18 07:58:06;;;;;;;5.00;1.10;;;22.60;1.00;;;;;;8326747;28;20198;-67
2022/07/18 08:02:07;;;;;;;4.80;0.80;;;22.60;1.00;;;;;;8317229;28;20218;-63
2022/07/18 08:06:08;;;;;;;1.93;0.90;;;22.60;1.00;;;;;;8357100;28;20240;-65
2022/07/18 08:10:09;;;;;;;4.20;1.10;;;22.70;1.00;;;;;;8329126;28;20549;-66
2022/07/18 08:14:10;;;;;;;4.67;0.90;;;22.80;1.00;;;;;;8330716;28;20296;-65
2022/07/18 08:18:11;;;;;;;2.10;0.80;;;23.00;1.00;;;;;;8352690;28;20182;-65
2022/07/18 08:22:12;;;;;;;4.53;1.13;;;23.00;1.00;;;;;;8332112;28;20212;-66
2022/07/18 08:26:12;;;;;;;1.70;0.80;;;23.00;1.00;;;;;;8346650;28;20201;-64
2022/07/18 08:30:13;;;;;;;4.27;1.20;;;23.20;1.00;;;;;;8345806;28;20194;-64
2022/07/18 08:34:14;;;;;;;4.33;1.00;;;23.30;1.00;;;;;;8346429;28;20201;-67
2022/07/18 08:38:15;;;;;;;3.07;0.90;;;23.60;1.00;;;;;;8340165;28;20195;-64
2022/07/18 08:42:20;;;;;;;5.33;1.07;;;23.70;1.00;;;;;;8342679;28;20226;-70
2022/07/18 08:46:21;;;;;;;3.20;1.10;;;23.90;1.00;;;;;;8333632;28;20190;-63
2022/07/18 08:50:23;;;;;;;2.73;1.03;;;24.00;1.00;;;;;;8344731;28;20205;-63
2022/07/18 08:54:24;;;;;;;3.67;0.93;;;24.00;1.00;;;;;;8333567;28;20212;-65
2022/07/18 08:58:25;;;;;;;3.43;1.17;;;24.10;1.00;;;;;;8355507;28;20189;-66
2022/07/18 09:02:26;;;;;;;3.13;1.03;;;24.20;1.00;;;;;;8357860;28;20209;-67
2022/07/18 09:06:27;;;;;;;2.17;0.90;;;24.40;1.00;;;;;;8331626;28;20277;-66
2022/07/18 09:10:50;;;;;;;3.03;1.17;;;24.60;1.00;;;;;;8325700;28;20326;-66
2022/07/18 09:14:52;;;;;;;3.03;0.80;;;24.90;1.00;;;;;;8340071;28;20229;-66
2022/07/18 09:18:53;;;;;;;5.20;1.20;;;25.10;1.00;;;;;;8324527;28;20191;-63
2022/07/18 09:22:54;;;;;;;5.13;1.27;;;25.40;1.00;;;;;;8344509;28;21443;-63
2022/07/18 09:26:56;;;;;;;3.17;0.87;;;25.50;1.00;;;;;;8342020;28;20209;-63
2022/07/18 09:30:57;;;;;;;3.63;1.20;;;25.60;1.00;;;;;;8353847;28;20184;-63
2022/07/18 09:35:05;;;;;;;2.43;1.00;;;25.30;1.00;;;;;;8323737;28;20185;-62
2022/07/18 09:39:19;;;;;;;2.20;1.20;;;25.30;1.00;;;;;;8336693;28;20197;-65
2022/07/18 09:43:23;;;;;;;2.77;1.10;;;25.50;1.00;;;;;;8329602;28;20182;-63
2022/07/18 09:47:23;;;;;;;2.90;0.93;;;25.60;1.00;;;;;;8336984;28;20190;-61
2022/07/18 09:51:24;;;;;;;2.83;1.13;;;25.30;1.00;;;;;;8340621;28;20551;-65
2022/07/18 09:55:25;;;;;;;1.83;0.80;;;25.40;1.00;;;;;;8322412;28;20189;-63
2022/07/18 09:59:26;;;;;;;3.60;0.97;;;25.50;1.00;;;;;;8333270;28;20245;-65
2022/07/18 10:03:27;;;;;;;2.63;1.00;;;25.70;1.00;;;;;;8329928;28;20192;-64
2022/07/18 10:07:28;;;;;;;3.42;1.00;;;25.90;1.00;;;;;;8322602;28;20187;-63
2022/07/18 10:11:29;;;;;;;3.10;0.90;;;26.10;1.00;;;;;;8338269;28;20189;-65
2022/07/18 10:15:33;;;;;;;5.13;1.45;;;26.20;1.00;;;;;;8337265;28;20228;-66
2022/07/18 10:19:35;;;;;;;3.17;0.80;;;26.20;1.00;;;;;;8324429;28;20289;-65
2022/07/18 10:23:46;;;;;;;4.00;1.00;;;25.70;1.00;;;;;;8355946;28;20228;-64
2022/07/18 10:28:00;;;;;;;2.27;0.90;;;25.70;1.00;;;;;;8340707;28;20187;-64
2022/07/18 10:32:07;;;;;;;3.63;0.77;;;25.70;1.00;;;;;;8335545;28;20189;-63
2022/07/18 10:36:14;;;;;;;2.50;0.90;;;25.70;1.00;;;;;;8325291;28;20186;-68
2022/07/18 10:41:00;;;;;;;2.80;0.97;;;25.90;1.00;;;;;;8338355;28;20247;-65
2022/07/18 10:45:40;;;;;;;3.83;1.20;;;26.20;1.00;;;;;;8358267;28;20253;-65
2022/07/18 10:49:52;;;;;;;3.40;1.23;;;26.10;1.00;;;;;;8328954;28;20195;-64
2022/07/18 10:53:53;;;;;;;2.07;1.10;;;26.00;1.00;;;;;;8335681;28;20224;-64
2022/07/18 10:57:54;;;;;;;4.03;1.03;;;26.10;1.00;;;;;;8353905;28;20568;-63
2022/07/18 11:01:56;;;;;;;2.97;0.95;;;26.20;1.00;;;;;;8341842;28;20251;-62
2022/07/18 11:05:58;;;;;;;1.95;1.20;;;26.40;1.00;;;;;;8329618;28;20186;-62
2022/07/18 11:09:58;;;;;;;2.55;0.88;;;26.50;1.00;;;;;;8334072;28;20181;-64
2022/07/18 11:13:59;;;;;;;2.50;0.90;;;26.50;1.00;;;;;;8352101;28;20186;-62
2022/07/18 11:18:02;;;;;;;1.92;1.05;;;26.40;1.00;;;;;;8334557;28;20304;-65
2022/07/18 11:22:06;;;;;;;2.72;1.10;;;26.50;1.00;;;;;;8350005;28;20210;-63
2022/07/18 11:26:14;;;;;;;1.88;0.88;;;26.80;1.00;;;;;;8335668;28;20205;-63
2022/07/18 11:30:20;;;;;;;2.38;1.13;;;27.00;1.00;;;;;;8359392;28;20277;-65
2022/07/18 11:34:22;;;;;;;2.90;1.25;;;26.90;1.00;;;;;;8329175;28;20222;-63
2022/07/18 11:38:23;;;;;;;2.80;1.08;;;26.70;1.00;;;;;;8356184;28;20186;-63
2022/07/18 11:42:38;;;;;;;2.33;1.27;;;26.80;1.00;;;;;;8327375;28;20213;-64
2022/07/18 11:46:38;;;;;;;2.75;1.20;;;27.10;1.00;;;;;;8342491;28;20197;-63
2022/07/18 11:50:40;;;;;;;1.58;1.10;;;27.10;1.00;;;;;;8331087;28;20300;-65
2022/07/18 11:54:41;;;;;;;1.85;1.13;;;27.20;1.00;;;;;;8349109;28;20190;-63
2022/07/18 11:58:44;;;;;;;4.05;1.30;;;27.30;1.00;;;;;;8349094;28;20239;-64
2022/07/18 12:02:45;;;;;;;4.03;0.80;;;27.40;1.00;;;;;;8330396;28;20217;-64
2022/07/18 12:07:19;;;;;;;2.50;1.23;;;27.60;1.00;;;;;;8344797;28;20190;-64
2022/07/18 12:11:38;;;;;;;1.50;1.00;;;27.80;1.00;;;;;;8348467;28;20201;-65
2022/07/18 12:15:41;;;;;;;2.97;1.00;;;28.00;1.00;;;;;;8331746;28;20202;-65
2022/07/18 12:19:44;;;;;;;2.25;1.17;;;28.20;1.00;;;;;;8346819;28;20208;-63
2022/07/18 12:23:44;;;;;;;2.63;0.93;;;28.10;1.00;;;;;;8328314;28;20192;-66
2022/07/18 12:27:45;;;;;;;2.78;1.25;;;28.00;1.00;;;;;;8330210;28;20178;-65
2022/07/18 12:31:46;;;;;;;3.65;1.50;;;28.10;1.00;;;;;;8329686;28;20243;-66
2022/07/18 12:35:58;;;;;;;2.63;1.10;;;28.40;1.00;;;;;;8352612;28;20212;-68
2022/07/18 12:40:11;;;;;;;3.13;1.38;;;28.70;1.00;;;;;;8327514;28;20540;-66
2022/07/18 12:44:15;;;;;;;1.88;1.15;;;28.70;1.00;;;;;;8339545;28;20190;-65
2022/07/18 12:48:16;;;;;;;2.97;1.45;;;28.60;1.00;;;;;;8344947;28;20182;-64
2022/07/18 12:52:18;;;;;;;3.05;1.40;;;28.30;1.00;;;;;;8333262;28;20513;-64
2022/07/18 12:56:28;;;;;;;3.35;1.30;;;28.10;1.00;;;;;;8346547;28;20794;-65
2022/07/18 13:00:30;;;;;;;1.95;1.13;;;28.20;1.00;;;;;;8339080;28;20237;-65
2022/07/18 13:04:32;;;;;;;2.80;1.55;;;28.30;1.00;;;;;;8320592;28;20190;-65
2022/07/18 13:08:32;;;;;;;2.28;1.70;;;28.70;1.00;;;;;;8333064;28;20186;-63
2022/07/18 13:12:33;;;;;;;2.50;1.42;;;28.80;1.00;;;;;;8346565;28;20193;-64
2022/07/18 13:16:34;;;;;;;4.07;1.60;;;28.90;1.00;;;;;;8339138;28;20244;-65
2022/07/18 13:20:35;;;;;;;2.17;1.30;;;29.00;1.00;;;;;;8346845;28;20209;-67
2022/07/18 13:24:37;;;;;;;2.50;1.20;;;29.00;99.90;;;;;;8347393;28;20182;-63
2022/07/18 13:28:37;;;;;;;2.17;1.38;;;28.70;99.90;;;;;;8332748;28;20217;-66
2022/07/18 13:32:38;;;;;;;4.07;1.23;;;28.30;99.90;;;;;;8347572;28;20193;-62
2022/07/18 13:36:39;;;;;;;2.78;1.50;;;28.30;99.90;;;;;;8350356;28;20197;-64
2022/07/18 13:40:41;;;;;;;3.45;1.40;;;28.30;99.90;;;;;;8346249;28;20206;-64
2022/07/18 13:44:44;;;;;;;2.83;1.48;;;28.20;99.90;;;;;;8338573;28;20197;-64
2022/07/18 13:48:47;;;;;;;2.13;1.20;;;28.40;1.00;;;;;;8346054;28;20540;-63
2022/07/18 13:52:48;;;;;;;3.35;1.13;;;28.50;1.00;;;;;;8334583;28;20248;-65
2022/07/18 13:56:49;;;;;;;3.20;1.23;;;28.40;1.00;;;;;;8326362;28;20200;-67
2022/07/18 14:00:50;;;;;;;2.85;1.40;;;28.40;1.00;;;;;;8331406;28;20202;-65
2022/07/18 14:04:51;;;;;;;2.80;1.60;;;28.60;1.00;;;;;;8344432;28;20178;-66
2022/07/18 14:08:52;;;;;;;3.85;1.75;;;28.50;99.90;;;;;;8318944;28;20193;-65
2022/07/18 14:12:53;;;;;;;1.73;1.30;;;28.60;99.90;;;;;;8328664;28;20190;-67
2022/07/18 14:16:54;;;;;;;5.20;1.67;;;28.80;99.90;;;;;;8338536;28;20178;-66
2022/07/18 14:20:57;;;;;;;6.03;1.70;;;28.90;99.90;;;;;;8339006;28;20236;-66
2022/07/18 14:25:00;;;;;;;2.53;1.38;;;28.70;99.90;;;;;;8333399;28;20189;-67
2022/07/18 14:29:01;;;;;;;2.78;1.00;;;28.70;99.90;;;;;;8316505;28;20178;-64
2022/07/18 14:33:02;;;;;;;3.70;1.45;;;28.70;99.90;;;;;;8336949;28;20182;-66
2022/07/18 14:37:02;;;;;;;3.08;1.30;;;29.10;99.90;;;;;;8331269;28;20221;-65
2022/07/18 14:41:03;;;;;;;2.78;1.20;;;29.40;99.90;;;;;;8342500;28;20228;-67
2022/07/18 14:45:05;;;;;;;2.65;1.20;;;29.40;99.90;;;;;;8311790;28;20183;-63
2022/07/18 14:49:05;;;;;;;3.28;1.20;;;29.50;99.90;;;;;;8339485;28;20193;-66
2022/07/18 14:53:06;;;;;;;6.15;1.63;;;29.30;99.90;;;;;;8341584;28;20217;-66
2022/07/18 14:57:08;;;;;;;3.60;1.40;;;29.00;99.90;;;;;;8325828;28;20182;-62
2022/07/18 15:01:09;;;;;;;3.08;1.20;;;28.70;99.90;;;;;;8353046;28;20210;-64
2022/07/18 15:05:10;;;;;;;2.60;1.27;;;28.60;99.90;;;;;;8324683;28;20216;-66
2022/07/18 15:09:12;;;;;;;3.05;1.45;;;28.50;99.90;;;;;;8326410;28;20185;-67
2022/07/18 15:13:13;;;;;;;4.68;1.50;;;28.70;99.90;;;;;;8322143;28;20186;-62
2022/07/18 15:17:14;;;;;;;5.53;1.50;;;29.00;99.90;;;;;;8319996;28;20189;-63
2022/07/18 15:21:15;;;;;;;4.05;1.75;;;28.90;99.90;;;;;;8319016;28;20217;-64
2022/07/18 15:25:15;;;;;;;1.33;1.17;;;28.90;99.90;;;;;;8355191;28;20193;-63
2022/07/18 15:29:16;;;;;;;2.58;1.42;;;28.90;99.90;;;;;;8335777;28;20190;-62
2022/07/18 15:33:17;;;;;;;2.53;1.38;;;29.20;99.90;;;;;;8351196;28;20186;-62
2022/07/18 15:37:18;;;;;;;5.15;1.50;;;29.40;99.90;;;;;;8319284;28;20281;-64
2022/07/18 15:41:20;;;;;;;5.47;1.45;;;29.00;99.90;;;;;;8315425;28;20210;-64
2022/07/18 15:45:21;;;;;;;3.38;1.17;;;28.70;99.90;;;;;;8339221;28;20182;-62
2022/07/18 15:49:22;;;;;;;3.53;1.27;;;28.40;99.90;;;;;;8320193;28;20186;-62
2022/07/18 15:53:23;;;;;;;1.75;1.20;;;28.20;99.90;;;;;;8338746;28;20213;-64
2022/07/18 15:57:24;;;;;;;2.83;1.42;;;28.20;99.90;;;;;;8348834;28;20296;-64
2022/07/18 16:01:25;;;;;;;2.45;1.48;;;28.20;99.90;;;;;;8330843;28;20209;-63
2022/07/18 16:05:25;;;;;;;4.07;1.05;;;28.00;99.90;;;;;;8345585;28;20201;-64
2022/07/18 16:09:26;;;;;;;2.42;1.10;;;27.70;99.90;;;;;;8328390;28;20264;-63
2022/07/18 16:13:27;;;;;;;3.72;1.50;;;27.60;99.90;;;;;;8323963;28;20190;-62
2022/07/18 16:17:28;;;;;;;1.90;1.23;;;27.50;99.90;;;;;;8323192;28;20595;-67
2022/07/18 16:21:29;;;;;;;2.13;1.25;;;27.50;99.90;;;;;;8328763;28;20205;-70
2022/07/18 16:25:30;;;;;;;2.05;1.00;;;27.40;99.90;;;;;;8325871;28;20313;-64
2022/07/18 16:29:31;;;;;;;2.80;1.20;;;27.30;1.00;;;;;;8336567;28;20186;-67
2022/07/18 16:33:32;;;;;;;2.28;1.10;;;27.30;1.00;;;;;;8352897;28;20207;-64
2022/07/18 16:37:32;;;;;;;2.67;1.20;;;27.30;1.00;;;;;;8322199;28;20197;-69
2022/07/18 16:41:33;;;;;;;4.10;1.58;;;27.30;1.00;;;;;;8326453;28;20221;-62
2022/07/18 16:45:35;;;;;;;2.65;1.25;;;27.30;99.90;;;;;;8325079;28;20190;-66
2022/07/18 16:49:36;;;;;;;2.22;1.15;;;27.30;99.90;;;;;;8325763;28;20348;-66
2022/07/18 16:53:38;;;;;;;2.42;1.00;;;27.10;1.00;;;;;;8322130;28;20305;-67
2022/07/18 16:57:39;;;;;;;2.90;1.27;;;26.90;1.00;;;;;;8342957;28;20215;-63
2022/07/18 17:01:41;;;;;;;1.43;1.10;;;26.70;1.00;;;;;;8336209;28;20213;-66
2022/07/18 17:05:42;;;;;;;2.93;1.37;;;26.50;1.00;;;;;;8340606;28;20182;-65
2022/07/18 17:09:43;;;;;;;4.47;1.30;;;26.50;1.00;;;;;;8323099;28;20182;-64
2022/07/18 17:13:44;;;;;;;2.27;1.10;;;26.50;1.00;;;;;;8324148;28;20190;-63
2022/07/18 17:17:45;;;;;;;3.13;1.20;;;26.60;1.00;;;;;;8323838;28;20540;-63
2022/07/18 17:21:48;;;;;;;4.80;1.90;;;26.60;1.00;;;;;;8354455;28;20262;-65
2022/07/18 17:25:49;;;;;;;2.57;1.33;;;26.60;1.00;;;;;;8354414;28;21540;-64
2022/07/18 17:29:50;;;;;;;3.70;1.17;;;26.50;1.00;;;;;;8318794;28;20190;-66
2022/07/18 17:33:51;;;;;;;2.10;1.10;;;26.40;1.00;;;;;;8336454;28;20201;-66
2022/07/18 17:37:52;;;;;;;4.43;1.20;;;26.20;1.00;;;;;;8323259;28;20190;-72
2022/07/18 17:41:53;;;;;;;2.37;1.23;;;26.10;1.00;;;;;;8329743;28;20217;-69
2022/07/18 17:45:55;;;;;;;2.67;1.50;;;26.00;1.00;;;;;;8322645;28;20421;-67
2022/07/18 17:49:56;;;;;;;3.57;1.80;;;25.90;1.00;;;;;;8322102;28;20304;-67
2022/07/18 17:53:57;;;;;;;3.70;1.30;;;25.90;1.00;;;;;;8336243;28;20202;-69
2022/07/18 17:57:58;;;;;;;2.33;1.03;;;26.00;1.00;;;;;;8339141;28;20214;-71
2022/07/18 18:01:58;;;;;;;4.07;1.47;;;26.20;1.00;;;;;;8337770;28;20217;-64
2022/07/18 18:05:59;;;;;;;2.63;1.10;;;26.20;1.00;;;;;;8337418;28;20177;-71
2022/07/18 18:10:02;;;;;;;3.30;1.20;;;26.40;1.00;;;;;;8322191;28;20465;-67
2022/07/18 18:14:03;;;;;;;4.47;2.27;;;26.50;1.00;;;;;;8331722;28;20197;-67
2022/07/18 18:18:06;;;;;;;4.47;2.70;;;26.60;1.00;;;;;;8353387;28;20221;-70
2022/07/18 18:22:06;;;;;;;4.47;2.50;;;26.60;1.00;;;;;;8319056;28;20218;-71
2022/07/18 18:26:07;;;;;;;5.93;2.15;;;26.40;1.00;;;;;;8350548;28;20218;-68
2022/07/18 18:30:10;;;;;;;2.93;2.13;;;26.20;1.00;;;;;;8322347;28;20663;-72
2022/07/18 18:34:12;;;;;;;8.67;4.23;;;26.20;1.00;;;;;;8325703;28;20190;-73
2022/07/18 18:38:12;;;;;;;9.80;6.00;;;26.30;1.00;;;;;;8341746;28;20194;-72
2022/07/18 18:42:13;;;;;;;8.87;5.20;;;25.80;1.00;;;;;;8324118;28;20213;-72
2022/07/18 18:46:14;;;;;;;6.27;3.53;;;25.30;1.00;;;;;;8361653;28;20551;-73
2022/07/18 18:50:15;;;;;;;5.83;3.67;;;25.00;1.00;;;;;;8325056;28;20193;-73
2022/07/18 18:54:20;;;;;;;6.43;3.87;;;24.60;1.00;;;;;;8326119;28;20210;-69
2022/07/18 18:58:20;;;;;;;4.53;2.83;;;24.10;1.00;;;;;;8325905;28;20190;-69
2022/07/18 19:02:21;;;;;;;5.43;2.87;;;23.70;1.00;;;;;;8317706;28;20217;-67
2022/07/18 19:06:25;;;;;;;4.43;2.90;;;23.20;1.00;;;;;;8354304;28;20277;-68
2022/07/18 19:10:26;;;;;;;5.67;2.83;;;22.80;1.00;;;;;;8338504;28;20193;-69
2022/07/18 19:14:27;;;;;;;4.60;2.70;;;22.40;1.00;;;;;;8335077;28;20194;-69
2022/07/18 19:18:28;;;;;;;3.20;2.20;;;22.00;1.00;;;;;;8328455;28;20194;-70
2022/07/18 19:22:29;;;;;;;3.17;2.00;;;21.70;1.00;;;;;;8330587;28;20213;-69
2022/07/18 19:26:29;;;;;;;3.50;1.97;;;21.30;1.00;;;;;;8327946;28;20185;-69
2022/07/18 19:30:31;;;;;;;3.60;1.53;;;21.00;1.00;;;;;;8329482;28;20217;-69
2022/07/18 19:34:32;;;;;;;3.50;1.67;;;20.70;1.00;;;;;;8356727;28;20191;-70
2022/07/18 19:38:33;;;;;;;4.53;1.30;;;20.50;1.00;;;;;;8327381;28;20201;-69
2022/07/18 19:42:34;;;;;;;2.60;1.63;;;20.20;1.00;;;;;;8323518;28;20229;-69
2022/07/18 19:46:34;;;;;;;2.70;1.73;;;20.00;1.00;;;;;;8318336;28;20213;-69
2022/07/18 19:50:36;;;;;;;1.90;1.40;;;19.90;1.00;;;;;;8325600;28;20224;-70
2022/07/18 19:54:37;;;;;;;1.70;1.27;;;19.70;1.00;;;;;;8334917;28;20205;-70
2022/07/18 19:58:38;;;;;;;1.70;1.07;;;19.50;1.00;;;;;;8345481;28;20198;-70
2022/07/18 20:02:39;;;;;;;2.47;1.30;;;19.30;1.00;;;;;;8326847;28;20217;-70
2022/07/18 20:06:40;;;;;;;3.50;1.20;;;19.20;1.00;;;;;;8338420;28;20185;-69
2022/07/18 20:10:41;;;;;;;1.53;1.10;;;19.00;1.00;;;;;;8339927;28;20225;-70
2022/07/18 20:14:42;;;;;;;1.77;1.10;;;18.90;1.00;;;;;;8315024;28;20222;-66
2022/07/18 20:18:43;;;;;;;1.30;1.07;;;18.70;1.00;;;;;;8337068;28;20188;-67
2022/07/18 20:22:44;;;;;;;1.73;1.40;;;18.60;1.00;;;;;;8323230;28;20285;-71
2022/07/18 20:26:44;;;;;;;1.80;1.30;;;18.40;1.00;;;;;;8327232;28;20233;-67
2022/07/18 20:30:45;;;;;;;1.70;1.30;;;18.30;1.00;;;;;;8318848;28;20256;-66
2022/07/18 20:34:46;;;;;;;1.60;1.17;;;18.10;1.00;;;;;;8335110;28;20198;-67
2022/07/18 20:38:48;;;;;;;2.33;1.20;;;18.00;1.00;;;;;;8337659;28;20193;-68
2022/07/18 20:42:50;;;;;;;1.57;1.10;;;17.90;1.00;;;;;;8350505;28;20308;-69
2022/07/18 20:46:51;;;;;;;2.27;1.53;;;17.70;1.00;;;;;;8321990;28;20190;-66
2022/07/18 20:50:52;;;;;;;1.93;1.20;;;17.60;1.00;;;;;;8334031;28;20213;-68
2022/07/18 20:54:53;;;;;;;2.37;1.00;;;17.50;4.10;;;;;;8320612;28;20309;-69
2022/07/18 20:58:54;;;;;;;3.23;1.43;;;17.40;1.00;;;;;;8318319;28;20197;-66
2022/07/18 21:02:54;;;;;;;2.30;1.27;;;17.30;8.40;;;;;;8317336;28;20228;-67
2022/07/18 21:06:55;;;;;;;4.07;1.40;;;17.20;17.30;;;;;;8332307;28;20189;-66
2022/07/18 21:10:56;;;;;;;1.80;1.17;;;17.00;39.60;;;;;;8348803;28;20259;-66
2022/07/18 21:15:06;;;;;;;2.17;1.60;;;16.90;65.50;;;;;;8318704;28;20225;-67
2022/07/18 21:19:06;;;;;;;2.10;1.33;;;16.80;94.10;;;;;;8334498;28;20199;-68